sensor_id;sensor_type;location;lat;lon;timestamp;P1;durP1;ratioP1;P2;durP2;ratioP2
55915;SDS011;41826;53.246;-6.670;2022-07-29T00:00:59;1.30;;;0.70;;
55915;SDS011;41826;53.246;-6.670;2022-07-29T00:03:24;0.52;;;0.52;;
55915;SDS011;41826;53.246;-6.670;2022-07-29T00:05:50;0.73;;;0.70;;
55915;SDS011;41826;53.246;-6.670;2022-07-29T00:08:17;0.93;;;0.57;;
55915;SDS011;41826;53.246;-6.670;2022-07-29T00:10:43;0.80;;;0.70;;
55915;SDS011;41826;53.246;-6.670;2022-07-29T00:13:09;1.10;;;0.60;;
55915;SDS011;41826;53.246;-6.670;2022-07-29T00:15:34;0.82;;;0.60;;
55915;SDS011;41826;53.246;-6.670;2022-07-29T00:17:59;0.40;;;0.40;;
55915;SDS011;41826;53.246;-6.670;2022-07-29T00:20:25;1.13;;;0.63;;
55915;SDS011;41826;53.246;-6.670;2022-07-29T00:22:50;0.60;;;0.60;;
55915;SDS011;41826;53.246;-6.670;2022-07-29T00:25:16;0.60;;;0.60;;
55915;SDS011;41826;53.246;-6.670;2022-07-29T00:27:42;2.35;;;1.00;;
55915;SDS011;41826;53.246;-6.670;2022-07-29T00:30:07;1.58;;;0.75;;
55915;SDS011;41826;53.246;-6.670;2022-07-29T00:32:33;1.05;;;0.63;;
55915;SDS011;41826;53.246;-6.670;2022-07-29T00:34:59;1.23;;;1.13;;
55915;SDS011;41826;53.246;-6.670;2022-07-29T00:37:43;0.80;;;0.80;;
55915;SDS011;41826;53.246;-6.670;2022-07-29T00:40:09;1.27;;;0.88;;
55915;SDS011;41826;53.246;-6.670;2022-07-29T00:42:44;0.60;;;0.60;;
55915;SDS011;41826;53.246;-6.670;2022-07-29T00:45:11;2.25;;;1.10;;
55915;SDS011;41826;53.246;-6.670;2022-07-29T00:47:37;0.73;;;0.47;;
55915;SDS011;41826;53.246;-6.670;2022-07-29T00:50:03;1.60;;;1.30;;
55915;SDS011;41826;53.246;-6.670;2022-07-29T00:52:29;1.65;;;1.15;;
55915;SDS011;41826;53.246;-6.670;2022-07-29T00:54:55;2.25;;;1.25;;
55915;SDS011;41826;53.246;-6.670;2022-07-29T00:57:21;3.53;;;1.30;;
55915;SDS011;41826;53.246;-6.670;2022-07-29T00:59:46;2.05;;;1.48;;
55915;SDS011;41826;53.246;-6.670;2022-07-29T01:02:12;1.88;;;1.38;;
55915;SDS011;41826;53.246;-6.670;2022-07-29T01:04:37;1.23;;;1.13;;
55915;SDS011;41826;53.246;-6.670;2022-07-29T01:07:03;3.10;;;1.77;;
55915;SDS011;41826;53.246;-6.670;2022-07-29T01:09:31;4.00;;;1.50;;
55915;SDS011;41826;53.246;-6.670;2022-07-29T01:11:57;1.67;;;1.15;;
55915;SDS011;41826;53.246;-6.670;2022-07-29T01:14:24;2.53;;;1.40;;
55915;SDS011;41826;53.246;-6.670;2022-07-29T01:27:57;3.90;;;1.67;;
55915;SDS011;41826;53.246;-6.670;2022-07-29T01:30:45;2.40;;;1.60;;
55915;SDS011;41826;53.246;-6.670;2022-07-29T01:33:16;4.10;;;1.30;;
55915;SDS011;41826;53.246;-6.670;2022-07-29T01:36:04;2.58;;;1.40;;
55915;SDS011;41826;53.246;-6.670;2022-07-29T01:41:05;2.28;;;1.40;;
55915;SDS011;41826;53.246;-6.670;2022-07-29T01:43:37;1.27;;;1.20;;
55915;SDS011;41826;53.246;-6.670;2022-07-29T01:46:07;6.18;;;1.60;;
55915;SDS011;41826;53.246;-6.670;2022-07-29T01:48:39;2.22;;;1.75;;
55915;SDS011;41826;53.246;-6.670;2022-07-29T01:51:18;3.20;;;1.60;;
55915;SDS011;41826;53.246;-6.670;2022-07-29T01:53:55;1.70;;;0.98;;
55915;SDS011;41826;53.246;-6.670;2022-07-29T01:56:27;5.53;;;1.80;;
55915;SDS011;41826;53.246;-6.670;2022-07-29T01:58:57;2.83;;;1.90;;
55915;SDS011;41826;53.246;-6.670;2022-07-29T02:01:24;1.08;;;0.80;;
55915;SDS011;41826;53.246;-6.670;2022-07-29T02:03:51;2.58;;;1.60;;
55915;SDS011;41826;53.246;-6.670;2022-07-29T02:06:21;3.30;;;1.65;;
55915;SDS011;41826;53.246;-6.670;2022-07-29T02:08:47;1.85;;;1.27;;
55915;SDS011;41826;53.246;-6.670;2022-07-29T02:11:14;5.13;;;2.17;;
55915;SDS011;41826;53.246;-6.670;2022-07-29T02:13:40;4.10;;;1.60;;
55915;SDS011;41826;53.246;-6.670;2022-07-29T02:16:06;3.70;;;1.17;;
55915;SDS011;41826;53.246;-6.670;2022-07-29T02:18:35;4.68;;;1.83;;
55915;SDS011;41826;53.246;-6.670;2022-07-29T02:21:01;0.80;;;0.70;;
55915;SDS011;41826;53.246;-6.670;2022-07-29T02:23:28;1.30;;;0.90;;
55915;SDS011;41826;53.246;-6.670;2022-07-29T02:25:57;1.88;;;1.77;;
55915;SDS011;41826;53.246;-6.670;2022-07-29T02:28:24;1.77;;;1.67;;
55915;SDS011;41826;53.246;-6.670;2022-07-29T02:30:52;2.22;;;1.60;;
55915;SDS011;41826;53.246;-6.670;2022-07-29T02:33:21;2.03;;;1.17;;
55915;SDS011;41826;53.246;-6.670;2022-07-29T02:35:49;2.10;;;1.55;;
55915;SDS011;41826;53.246;-6.670;2022-07-29T02:38:15;1.90;;;1.08;;
55915;SDS011;41826;53.246;-6.670;2022-07-29T02:41:07;2.20;;;0.93;;
55915;SDS011;41826;53.246;-6.670;2022-07-29T02:43:36;3.70;;;2.08;;
55915;SDS011;41826;53.246;-6.670;2022-07-29T02:46:03;7.25;;;2.70;;
55915;SDS011;41826;53.246;-6.670;2022-07-29T02:48:34;3.83;;;3.45;;
55915;SDS011;41826;53.246;-6.670;2022-07-29T02:51:10;4.32;;;4.00;;
55915;SDS011;41826;53.246;-6.670;2022-07-29T02:53:41;7.88;;;3.47;;
55915;SDS011;41826;53.246;-6.670;2022-07-29T02:56:13;4.65;;;3.15;;
55915;SDS011;41826;53.246;-6.670;2022-07-29T02:58:42;7.70;;;3.80;;
55915;SDS011;41826;53.246;-6.670;2022-07-29T03:01:13;4.68;;;3.85;;
55915;SDS011;41826;53.246;-6.670;2022-07-29T03:03:41;6.30;;;3.65;;
55915;SDS011;41826;53.246;-6.670;2022-07-29T03:06:09;4.32;;;3.97;;
55915;SDS011;41826;53.246;-6.670;2022-07-29T03:08:38;6.53;;;4.45;;
55915;SDS011;41826;53.246;-6.670;2022-07-29T03:11:04;5.13;;;3.83;;
55915;SDS011;41826;53.246;-6.670;2022-07-29T03:13:30;4.55;;;4.15;;
55915;SDS011;41826;53.246;-6.670;2022-07-29T03:15:56;5.90;;;4.72;;
55915;SDS011;41826;53.246;-6.670;2022-07-29T03:18:22;7.57;;;4.90;;
55915;SDS011;41826;53.246;-6.670;2022-07-29T03:20:48;6.65;;;4.70;;
55915;SDS011;41826;53.246;-6.670;2022-07-29T03:23:21;6.47;;;5.18;;
55915;SDS011;41826;53.246;-6.670;2022-07-29T03:25:51;6.78;;;4.90;;
55915;SDS011;41826;53.246;-6.670;2022-07-29T03:28:17;11.18;;;7.38;;
55915;SDS011;41826;53.246;-6.670;2022-07-29T03:30:43;10.43;;;7.20;;
55915;SDS011;41826;53.246;-6.670;2022-07-29T03:33:08;2.75;;;2.55;;
55915;SDS011;41826;53.246;-6.670;2022-07-29T03:35:33;8.10;;;6.95;;
55915;SDS011;41826;53.246;-6.670;2022-07-29T03:37:59;10.27;;;6.60;;
55915;SDS011;41826;53.246;-6.670;2022-07-29T03:40:28;6.65;;;5.85;;
55915;SDS011;41826;53.246;-6.670;2022-07-29T03:42:57;8.75;;;4.80;;
55915;SDS011;41826;53.246;-6.670;2022-07-29T03:45:25;11.00;;;5.22;;
55915;SDS011;41826;53.246;-6.670;2022-07-29T03:48:00;6.80;;;4.82;;
55915;SDS011;41826;53.246;-6.670;2022-07-29T03:50:30;3.65;;;3.20;;
55915;SDS011;41826;53.246;-6.670;2022-07-29T03:52:57;9.48;;;4.78;;
55915;SDS011;41826;53.246;-6.670;2022-07-29T03:55:25;7.57;;;5.05;;
55915;SDS011;41826;53.246;-6.670;2022-07-29T03:57:53;6.10;;;4.63;;
55915;SDS011;41826;53.246;-6.670;2022-07-29T04:00:20;4.88;;;4.32;;
55915;SDS011;41826;53.246;-6.670;2022-07-29T04:02:48;5.85;;;4.40;;
55915;SDS011;41826;53.246;-6.670;2022-07-29T04:05:14;6.22;;;4.82;;
55915;SDS011;41826;53.246;-6.670;2022-07-29T04:07:42;7.15;;;4.60;;
55915;SDS011;41826;53.246;-6.670;2022-07-29T04:10:09;7.60;;;4.65;;
55915;SDS011;41826;53.246;-6.670;2022-07-29T04:12:34;2.70;;;2.13;;
55915;SDS011;41826;53.246;-6.670;2022-07-29T04:15:00;7.10;;;4.55;;
55915;SDS011;41826;53.246;-6.670;2022-07-29T04:17:27;5.07;;;4.15;;
55915;SDS011;41826;53.246;-6.670;2022-07-29T04:19:52;6.60;;;4.55;;
55915;SDS011;41826;53.246;-6.670;2022-07-29T04:22:18;4.55;;;3.80;;
55915;SDS011;41826;53.246;-6.670;2022-07-29T04:24:43;4.85;;;4.35;;
55915;SDS011;41826;53.246;-6.670;2022-07-29T04:27:08;5.57;;;4.18;;
55915;SDS011;41826;53.246;-6.670;2022-07-29T04:29:34;5.38;;;4.15;;
55915;SDS011;41826;53.246;-6.670;2022-07-29T04:31:59;5.40;;;4.63;;
55915;SDS011;41826;53.246;-6.670;2022-07-29T04:34:25;5.47;;;4.57;;
55915;SDS011;41826;53.246;-6.670;2022-07-29T04:36:50;7.97;;;5.05;;
55915;SDS011;41826;53.246;-6.670;2022-07-29T04:39:15;8.23;;;5.45;;
55915;SDS011;41826;53.246;-6.670;2022-07-29T04:41:43;8.85;;;4.97;;
55915;SDS011;41826;53.246;-6.670;2022-07-29T04:44:08;5.97;;;4.60;;
55915;SDS011;41826;53.246;-6.670;2022-07-29T04:46:33;7.28;;;4.28;;
55915;SDS011;41826;53.246;-6.670;2022-07-29T04:48:59;3.45;;;2.05;;
55915;SDS011;41826;53.246;-6.670;2022-07-29T04:51:24;1.95;;;1.83;;
55915;SDS011;41826;53.246;-6.670;2022-07-29T04:53:50;6.15;;;4.65;;
55915;SDS011;41826;53.246;-6.670;2022-07-29T04:56:15;6.40;;;3.63;;
55915;SDS011;41826;53.246;-6.670;2022-07-29T04:58:41;2.28;;;1.35;;
55915;SDS011;41826;53.246;-6.670;2022-07-29T05:01:06;7.55;;;4.80;;
55915;SDS011;41826;53.246;-6.670;2022-07-29T05:03:31;7.75;;;5.03;;
55915;SDS011;41826;53.246;-6.670;2022-07-29T05:05:57;4.85;;;4.45;;
55915;SDS011;41826;53.246;-6.670;2022-07-29T05:08:22;7.13;;;5.00;;
55915;SDS011;41826;53.246;-6.670;2022-07-29T05:10:47;5.90;;;4.57;;
55915;SDS011;41826;53.246;-6.670;2022-07-29T05:13:13;9.15;;;5.47;;
55915;SDS011;41826;53.246;-6.670;2022-07-29T05:15:38;8.23;;;5.60;;
55915;SDS011;41826;53.246;-6.670;2022-07-29T05:18:04;6.30;;;5.68;;
55915;SDS011;41826;53.246;-6.670;2022-07-29T05:20:30;6.40;;;5.25;;
55915;SDS011;41826;53.246;-6.670;2022-07-29T05:22:56;9.07;;;6.30;;
55915;SDS011;41826;53.246;-6.670;2022-07-29T05:25:25;6.50;;;5.90;;
55915;SDS011;41826;53.246;-6.670;2022-07-29T05:27:52;9.88;;;6.28;;
55915;SDS011;41826;53.246;-6.670;2022-07-29T05:30:17;7.80;;;5.55;;
55915;SDS011;41826;53.246;-6.670;2022-07-29T05:32:43;5.07;;;4.20;;
55915;SDS011;41826;53.246;-6.670;2022-07-29T05:35:09;8.93;;;5.95;;
55915;SDS011;41826;53.246;-6.670;2022-07-29T05:37:35;6.63;;;4.55;;
55915;SDS011;41826;53.246;-6.670;2022-07-29T05:40:01;6.70;;;5.45;;
55915;SDS011;41826;53.246;-6.670;2022-07-29T05:42:26;13.02;;;5.88;;
55915;SDS011;41826;53.246;-6.670;2022-07-29T05:44:52;6.30;;;5.07;;
55915;SDS011;41826;53.246;-6.670;2022-07-29T05:47:18;6.97;;;5.25;;
55915;SDS011;41826;53.246;-6.670;2022-07-29T05:49:43;7.93;;;4.78;;
55915;SDS011;41826;53.246;-6.670;2022-07-29T05:52:09;4.85;;;3.03;;
55915;SDS011;41826;53.246;-6.670;2022-07-29T05:54:35;7.13;;;5.05;;
55915;SDS011;41826;53.246;-6.670;2022-07-29T05:57:01;6.03;;;4.35;;
55915;SDS011;41826;53.246;-6.670;2022-07-29T05:59:27;6.28;;;4.13;;
55915;SDS011;41826;53.246;-6.670;2022-07-29T06:01:52;8.20;;;4.80;;
55915;SDS011;41826;53.246;-6.670;2022-07-29T06:04:17;2.38;;;2.17;;
55915;SDS011;41826;53.246;-6.670;2022-07-29T06:06:43;4.85;;;4.13;;
55915;SDS011;41826;53.246;-6.670;2022-07-29T06:09:08;2.95;;;2.72;;
55915;SDS011;41826;53.246;-6.670;2022-07-29T06:11:33;1.33;;;1.20;;
55915;SDS011;41826;53.246;-6.670;2022-07-29T06:13:59;1.15;;;0.60;;
55915;SDS011;41826;53.246;-6.670;2022-07-29T06:16:24;1.52;;;1.42;;
55915;SDS011;41826;53.246;-6.670;2022-07-29T06:18:50;1.42;;;1.10;;
55915;SDS011;41826;53.246;-6.670;2022-07-29T06:21:15;1.95;;;1.70;;
55915;SDS011;41826;53.246;-6.670;2022-07-29T06:23:40;3.72;;;1.95;;
55915;SDS011;41826;53.246;-6.670;2022-07-29T06:26:06;0.73;;;0.73;;
55915;SDS011;41826;53.246;-6.670;2022-07-29T06:28:32;1.08;;;0.50;;
55915;SDS011;41826;53.246;-6.670;2022-07-29T06:30:57;4.80;;;3.08;;
55915;SDS011;41826;53.246;-6.670;2022-07-29T06:33:23;2.05;;;1.45;;
55915;SDS011;41826;53.246;-6.670;2022-07-29T06:35:49;3.22;;;2.25;;
55915;SDS011;41826;53.246;-6.670;2022-07-29T06:38:15;2.78;;;1.83;;
55915;SDS011;41826;53.246;-6.670;2022-07-29T06:40:41;4.22;;;2.67;;
55915;SDS011;41826;53.246;-6.670;2022-07-29T06:43:36;4.82;;;2.70;;
55915;SDS011;41826;53.246;-6.670;2022-07-29T06:46:12;2.30;;;1.88;;
55915;SDS011;41826;53.246;-6.670;2022-07-29T06:48:40;3.30;;;1.35;;
55915;SDS011;41826;53.246;-6.670;2022-07-29T06:51:07;4.85;;;2.25;;
55915;SDS011;41826;53.246;-6.670;2022-07-29T06:53:33;2.33;;;2.13;;
55915;SDS011;41826;53.246;-6.670;2022-07-29T06:56:00;3.33;;;2.10;;
55915;SDS011;41826;53.246;-6.670;2022-07-29T06:58:26;2.33;;;1.00;;
55915;SDS011;41826;53.246;-6.670;2022-07-29T07:00:53;1.10;;;0.85;;
55915;SDS011;41826;53.246;-6.670;2022-07-29T07:03:19;2.55;;;1.60;;
55915;SDS011;41826;53.246;-6.670;2022-07-29T07:05:45;4.60;;;2.63;;
55915;SDS011;41826;53.246;-6.670;2022-07-29T07:08:10;6.50;;;2.88;;
55915;SDS011;41826;53.246;-6.670;2022-07-29T07:10:37;3.60;;;2.20;;
55915;SDS011;41826;53.246;-6.670;2022-07-29T07:13:02;1.13;;;1.02;;
55915;SDS011;41826;53.246;-6.670;2022-07-29T07:15:29;3.83;;;1.52;;
55915;SDS011;41826;53.246;-6.670;2022-07-29T07:17:55;3.20;;;0.75;;
55915;SDS011;41826;53.246;-6.670;2022-07-29T07:20:20;2.10;;;1.13;;
55915;SDS011;41826;53.246;-6.670;2022-07-29T07:22:45;3.40;;;1.88;;
55915;SDS011;41826;53.246;-6.670;2022-07-29T07:25:11;1.90;;;1.00;;
55915;SDS011;41826;53.246;-6.670;2022-07-29T07:27:38;2.42;;;1.75;;
55915;SDS011;41826;53.246;-6.670;2022-07-29T07:30:04;1.45;;;1.10;;
55915;SDS011;41826;53.246;-6.670;2022-07-29T07:32:33;5.15;;;2.97;;
55915;SDS011;41826;53.246;-6.670;2022-07-29T07:35:00;2.70;;;1.65;;
55915;SDS011;41826;53.246;-6.670;2022-07-29T07:37:26;3.97;;;2.78;;
55915;SDS011;41826;53.246;-6.670;2022-07-29T07:39:51;3.67;;;2.70;;
55915;SDS011;41826;53.246;-6.670;2022-07-29T07:42:18;2.80;;;2.28;;
55915;SDS011;41826;53.246;-6.670;2022-07-29T07:44:44;2.47;;;0.98;;
55915;SDS011;41826;53.246;-6.670;2022-07-29T07:47:10;6.15;;;2.92;;
55915;SDS011;41826;53.246;-6.670;2022-07-29T07:49:36;1.88;;;1.50;;
55915;SDS011;41826;53.246;-6.670;2022-07-29T07:52:02;2.55;;;1.10;;
55915;SDS011;41826;53.246;-6.670;2022-07-29T07:54:28;4.68;;;2.67;;
55915;SDS011;41826;53.246;-6.670;2022-07-29T07:56:53;8.27;;;3.00;;
55915;SDS011;41826;53.246;-6.670;2022-07-29T07:59:18;1.80;;;1.70;;
55915;SDS011;41826;53.246;-6.670;2022-07-29T08:01:44;2.05;;;0.75;;
55915;SDS011;41826;53.246;-6.670;2022-07-29T08:04:09;5.63;;;1.73;;
55915;SDS011;41826;53.246;-6.670;2022-07-29T08:06:35;1.33;;;0.57;;
55915;SDS011;41826;53.246;-6.670;2022-07-29T08:09:02;2.58;;;1.02;;
55915;SDS011;41826;53.246;-6.670;2022-07-29T08:11:28;2.40;;;1.02;;
55915;SDS011;41826;53.246;-6.670;2022-07-29T08:13:53;2.30;;;0.70;;
55915;SDS011;41826;53.246;-6.670;2022-07-29T08:16:19;2.92;;;1.65;;
55915;SDS011;41826;53.246;-6.670;2022-07-29T08:18:45;1.73;;;1.05;;
55915;SDS011;41826;53.246;-6.670;2022-07-29T08:21:11;5.25;;;1.67;;
55915;SDS011;41826;53.246;-6.670;2022-07-29T08:23:37;1.35;;;1.25;;
55915;SDS011;41826;53.246;-6.670;2022-07-29T08:26:11;2.05;;;1.50;;
55915;SDS011;41826;53.246;-6.670;2022-07-29T08:28:38;1.63;;;0.93;;
55915;SDS011;41826;53.246;-6.670;2022-07-29T08:31:04;1.75;;;1.20;;
55915;SDS011;41826;53.246;-6.670;2022-07-29T08:33:30;4.13;;;1.30;;
55915;SDS011;41826;53.246;-6.670;2022-07-29T08:35:56;2.75;;;1.08;;
55915;SDS011;41826;53.246;-6.670;2022-07-29T08:38:22;4.55;;;1.35;;
55915;SDS011;41826;53.246;-6.670;2022-07-29T08:40:47;3.95;;;1.20;;
55915;SDS011;41826;53.246;-6.670;2022-07-29T08:43:12;1.80;;;0.80;;
55915;SDS011;41826;53.246;-6.670;2022-07-29T08:45:41;3.90;;;1.50;;
55915;SDS011;41826;53.246;-6.670;2022-07-29T08:48:08;0.65;;;0.65;;
55915;SDS011;41826;53.246;-6.670;2022-07-29T08:50:34;2.10;;;1.08;;
55915;SDS011;41826;53.246;-6.670;2022-07-29T08:53:01;2.33;;;1.25;;
55915;SDS011;41826;53.246;-6.670;2022-07-29T08:55:27;1.58;;;1.10;;
55915;SDS011;41826;53.246;-6.670;2022-07-29T08:57:53;3.38;;;1.48;;
55915;SDS011;41826;53.246;-6.670;2022-07-29T09:00:19;2.90;;;1.17;;
55915;SDS011;41826;53.246;-6.670;2022-07-29T09:02:47;1.73;;;1.23;;
55915;SDS011;41826;53.246;-6.670;2022-07-29T09:05:20;4.60;;;1.38;;
55915;SDS011;41826;53.246;-6.670;2022-07-29T09:07:47;2.13;;;0.82;;
55915;SDS011;41826;53.246;-6.670;2022-07-29T09:10:13;4.93;;;1.80;;
55915;SDS011;41826;53.246;-6.670;2022-07-29T09:12:38;2.40;;;0.90;;
55915;SDS011;41826;53.246;-6.670;2022-07-29T09:15:04;3.92;;;1.10;;
55915;SDS011;41826;53.246;-6.670;2022-07-29T09:17:44;3.15;;;0.98;;
55915;SDS011;41826;53.246;-6.670;2022-07-29T09:20:14;2.90;;;0.95;;
55915;SDS011;41826;53.246;-6.670;2022-07-29T09:22:44;2.03;;;1.17;;
55915;SDS011;41826;53.246;-6.670;2022-07-29T09:25:14;2.58;;;0.93;;
55915;SDS011;41826;53.246;-6.670;2022-07-29T09:27:40;1.67;;;0.85;;
55915;SDS011;41826;53.246;-6.670;2022-07-29T09:30:06;1.65;;;0.80;;
55915;SDS011;41826;53.246;-6.670;2022-07-29T09:32:53;1.48;;;0.73;;
55915;SDS011;41826;53.246;-6.670;2022-07-29T09:35:26;4.60;;;1.48;;
55915;SDS011;41826;53.246;-6.670;2022-07-29T09:37:52;6.70;;;1.60;;
55915;SDS011;41826;53.246;-6.670;2022-07-29T09:42:44;1.77;;;0.90;;
55915;SDS011;41826;53.246;-6.670;2022-07-29T09:45:10;5.15;;;0.90;;
55915;SDS011;41826;53.246;-6.670;2022-07-29T09:47:43;4.97;;;1.27;;
55915;SDS011;41826;53.246;-6.670;2022-07-29T09:50:12;2.10;;;0.80;;
55915;SDS011;41826;53.246;-6.670;2022-07-29T09:52:51;1.95;;;0.90;;
55915;SDS011;41826;53.246;-6.670;2022-07-29T09:55:17;2.67;;;0.82;;
55915;SDS011;41826;53.246;-6.670;2022-07-29T09:57:43;4.85;;;0.98;;
55915;SDS011;41826;53.246;-6.670;2022-07-29T10:00:10;3.15;;;0.88;;
55915;SDS011;41826;53.246;-6.670;2022-07-29T10:02:38;1.45;;;0.68;;
55915;SDS011;41826;53.246;-6.670;2022-07-29T10:05:06;2.65;;;0.90;;
55915;SDS011;41826;53.246;-6.670;2022-07-29T10:10:23;3.85;;;1.10;;
55915;SDS011;41826;53.246;-6.670;2022-07-29T10:12:51;2.97;;;1.30;;
55915;SDS011;41826;53.246;-6.670;2022-07-29T10:15:22;2.47;;;0.82;;
55915;SDS011;41826;53.246;-6.670;2022-07-29T10:17:49;3.00;;;1.08;;
55915;SDS011;41826;53.246;-6.670;2022-07-29T10:20:15;3.35;;;1.27;;
55915;SDS011;41826;53.246;-6.670;2022-07-29T10:22:41;2.47;;;1.15;;
55915;SDS011;41826;53.246;-6.670;2022-07-29T10:25:07;1.98;;;0.70;;
55915;SDS011;41826;53.246;-6.670;2022-07-29T10:27:34;1.48;;;0.82;;
55915;SDS011;41826;53.246;-6.670;2022-07-29T10:30:01;3.70;;;1.17;;
55915;SDS011;41826;53.246;-6.670;2022-07-29T10:45:58;2.78;;;0.93;;
55915;SDS011;41826;53.246;-6.670;2022-07-29T10:48:25;2.65;;;0.73;;
55915;SDS011;41826;53.246;-6.670;2022-07-29T10:50:58;6.55;;;0.70;;
55915;SDS011;41826;53.246;-6.670;2022-07-29T10:53:45;3.90;;;0.70;;
55915;SDS011;41826;53.246;-6.670;2022-07-29T10:56:27;2.13;;;0.90;;
55915;SDS011;41826;53.246;-6.670;2022-07-29T11:01:49;2.72;;;0.70;;
55915;SDS011;41826;53.246;-6.670;2022-07-29T11:04:16;3.63;;;0.88;;
55915;SDS011;41826;53.246;-6.670;2022-07-29T11:09:30;1.40;;;0.50;;
55915;SDS011;41826;53.246;-6.670;2022-07-29T11:11:56;2.65;;;0.77;;
55915;SDS011;41826;53.246;-6.670;2022-07-29T11:17:27;4.80;;;0.65;;
55915;SDS011;41826;53.246;-6.670;2022-07-29T11:22:55;0.68;;;0.60;;
55915;SDS011;41826;53.246;-6.670;2022-07-29T11:25:21;2.90;;;0.93;;
55915;SDS011;41826;53.246;-6.670;2022-07-29T11:27:46;3.67;;;0.63;;
55915;SDS011;41826;53.246;-6.670;2022-07-29T11:30:12;1.23;;;0.63;;
55915;SDS011;41826;53.246;-6.670;2022-07-29T11:32:38;4.35;;;0.90;;
55915;SDS011;41826;53.246;-6.670;2022-07-29T11:35:21;2.25;;;0.80;;
55915;SDS011;41826;53.246;-6.670;2022-07-29T11:40:32;3.17;;;0.90;;
55915;SDS011;41826;53.246;-6.670;2022-07-29T11:42:57;4.88;;;0.95;;
55915;SDS011;41826;53.246;-6.670;2022-07-29T11:45:23;2.28;;;0.80;;
55915;SDS011;41826;53.246;-6.670;2022-07-29T11:47:54;0.63;;;0.60;;
55915;SDS011;41826;53.246;-6.670;2022-07-29T11:50:31;1.45;;;0.73;;
55915;SDS011;41826;53.246;-6.670;2022-07-29T11:52:59;2.38;;;0.50;;
55915;SDS011;41826;53.246;-6.670;2022-07-29T11:55:25;0.70;;;0.43;;
55915;SDS011;41826;53.246;-6.670;2022-07-29T11:57:55;2.65;;;0.50;;
55915;SDS011;41826;53.246;-6.670;2022-07-29T12:00:35;0.82;;;0.50;;
55915;SDS011;41826;53.246;-6.670;2022-07-29T12:03:04;3.25;;;0.73;;
55915;SDS011;41826;53.246;-6.670;2022-07-29T12:05:35;1.92;;;0.40;;
55915;SDS011;41826;53.246;-6.670;2022-07-29T12:08:11;1.80;;;0.60;;
55915;SDS011;41826;53.246;-6.670;2022-07-29T12:10:39;3.10;;;0.77;;
55915;SDS011;41826;53.246;-6.670;2022-07-29T12:13:05;1.67;;;0.47;;
55915;SDS011;41826;53.246;-6.670;2022-07-29T12:15:31;0.75;;;0.50;;
55915;SDS011;41826;53.246;-6.670;2022-07-29T12:17:56;2.05;;;0.50;;
55915;SDS011;41826;53.246;-6.670;2022-07-29T12:20:23;0.77;;;0.40;;
55915;SDS011;41826;53.246;-6.670;2022-07-29T12:22:53;2.83;;;0.55;;
55915;SDS011;41826;53.246;-6.670;2022-07-29T12:25:19;1.38;;;0.43;;
55915;SDS011;41826;53.246;-6.670;2022-07-29T12:27:46;1.80;;;0.60;;
55915;SDS011;41826;53.246;-6.670;2022-07-29T12:30:12;2.78;;;0.50;;
55915;SDS011;41826;53.246;-6.670;2022-07-29T12:32:42;1.75;;;0.50;;
55915;SDS011;41826;53.246;-6.670;2022-07-29T12:37:39;1.45;;;0.45;;
55915;SDS011;41826;53.246;-6.670;2022-07-29T12:40:07;1.10;;;0.70;;
55915;SDS011;41826;53.246;-6.670;2022-07-29T12:42:34;0.55;;;0.40;;
55915;SDS011;41826;53.246;-6.670;2022-07-29T12:45:00;4.18;;;0.75;;
55915;SDS011;41826;53.246;-6.670;2022-07-29T12:47:26;1.23;;;0.32;;
55915;SDS011;41826;53.246;-6.670;2022-07-29T12:50:07;3.65;;;0.35;;
55915;SDS011;41826;53.246;-6.670;2022-07-29T12:52:34;2.30;;;0.43;;
55915;SDS011;41826;53.246;-6.670;2022-07-29T12:55:01;0.98;;;0.50;;
55915;SDS011;41826;53.246;-6.670;2022-07-29T12:57:27;1.60;;;0.45;;
55915;SDS011;41826;53.246;-6.670;2022-07-29T13:02:33;0.82;;;0.28;;
55915;SDS011;41826;53.246;-6.670;2022-07-29T13:04:59;1.33;;;0.30;;
55915;SDS011;41826;53.246;-6.670;2022-07-29T13:07:26;0.70;;;0.50;;
55915;SDS011;41826;53.246;-6.670;2022-07-29T13:09:54;0.82;;;0.40;;
55915;SDS011;41826;53.246;-6.670;2022-07-29T13:12:35;2.45;;;0.40;;
55915;SDS011;41826;53.246;-6.670;2022-07-29T13:15:11;3.05;;;0.50;;
55915;SDS011;41826;53.246;-6.670;2022-07-29T13:17:41;2.35;;;0.50;;
55915;SDS011;41826;53.246;-6.670;2022-07-29T13:20:09;1.60;;;0.38;;
55915;SDS011;41826;53.246;-6.670;2022-07-29T13:22:37;0.90;;;0.45;;
55915;SDS011;41826;53.246;-6.670;2022-07-29T13:25:03;4.32;;;0.50;;
55915;SDS011;41826;53.246;-6.670;2022-07-29T13:27:32;1.67;;;0.60;;
55915;SDS011;41826;53.246;-6.670;2022-07-29T13:29:59;0.75;;;0.52;;
55915;SDS011;41826;53.246;-6.670;2022-07-29T13:32:26;1.70;;;0.40;;
55915;SDS011;41826;53.246;-6.670;2022-07-29T13:34:53;1.13;;;0.40;;
55915;SDS011;41826;53.246;-6.670;2022-07-29T13:37:20;0.60;;;0.38;;
55915;SDS011;41826;53.246;-6.670;2022-07-29T13:39:45;2.15;;;0.57;;
55915;SDS011;41826;53.246;-6.670;2022-07-29T13:42:12;2.45;;;0.60;;
55915;SDS011;41826;53.246;-6.670;2022-07-29T13:44:38;0.60;;;0.52;;
55915;SDS011;41826;53.246;-6.670;2022-07-29T13:47:05;0.60;;;0.60;;
55915;SDS011;41826;53.246;-6.670;2022-07-29T13:49:31;1.27;;;0.40;;
55915;SDS011;41826;53.246;-6.670;2022-07-29T13:51:56;2.70;;;0.50;;
55915;SDS011;41826;53.246;-6.670;2022-07-29T13:54:21;1.52;;;0.70;;
55915;SDS011;41826;53.246;-6.670;2022-07-29T13:56:47;1.05;;;0.60;;
55915;SDS011;41826;53.246;-6.670;2022-07-29T13:59:12;0.73;;;0.40;;
55915;SDS011;41826;53.246;-6.670;2022-07-29T14:01:38;1.30;;;0.60;;
55915;SDS011;41826;53.246;-6.670;2022-07-29T14:04:06;0.60;;;0.40;;
55915;SDS011;41826;53.246;-6.670;2022-07-29T14:06:32;3.92;;;0.50;;
55915;SDS011;41826;53.246;-6.670;2022-07-29T14:08:57;0.57;;;0.40;;
55915;SDS011;41826;53.246;-6.670;2022-07-29T14:11:23;0.50;;;0.30;;
55915;SDS011;41826;53.246;-6.670;2022-07-29T14:13:48;1.27;;;0.45;;
55915;SDS011;41826;53.246;-6.670;2022-07-29T14:16:14;0.90;;;0.50;;
55915;SDS011;41826;53.246;-6.670;2022-07-29T14:18:39;0.88;;;0.40;;
55915;SDS011;41826;53.246;-6.670;2022-07-29T14:21:05;1.88;;;0.70;;
55915;SDS011;41826;53.246;-6.670;2022-07-29T14:23:30;0.52;;;0.30;;
55915;SDS011;41826;53.246;-6.670;2022-07-29T14:25:55;1.48;;;0.43;;
55915;SDS011;41826;53.246;-6.670;2022-07-29T14:28:21;0.43;;;0.43;;
55915;SDS011;41826;53.246;-6.670;2022-07-29T14:30:46;1.08;;;0.38;;
55915;SDS011;41826;53.246;-6.670;2022-07-29T14:33:11;2.83;;;0.40;;
55915;SDS011;41826;53.246;-6.670;2022-07-29T14:35:37;2.42;;;0.50;;
55915;SDS011;41826;53.246;-6.670;2022-07-29T14:38:03;0.73;;;0.30;;
55915;SDS011;41826;53.246;-6.670;2022-07-29T14:40:28;2.97;;;0.50;;
55915;SDS011;41826;53.246;-6.670;2022-07-29T14:42:54;1.98;;;0.60;;
55915;SDS011;41826;53.246;-6.670;2022-07-29T14:45:19;1.58;;;0.40;;
55915;SDS011;41826;53.246;-6.670;2022-07-29T14:47:45;2.53;;;0.40;;
55915;SDS011;41826;53.246;-6.670;2022-07-29T14:50:10;0.80;;;0.50;;
55915;SDS011;41826;53.246;-6.670;2022-07-29T14:52:36;1.75;;;0.40;;
55915;SDS011;41826;53.246;-6.670;2022-07-29T14:55:03;0.77;;;0.40;;
55915;SDS011;41826;53.246;-6.670;2022-07-29T14:57:29;2.85;;;0.60;;
55915;SDS011;41826;53.246;-6.670;2022-07-29T14:59:54;3.25;;;0.52;;
55915;SDS011;41826;53.246;-6.670;2022-07-29T15:02:20;0.77;;;0.50;;
55915;SDS011;41826;53.246;-6.670;2022-07-29T15:04:45;1.55;;;0.75;;
55915;SDS011;41826;53.246;-6.670;2022-07-29T15:07:12;1.95;;;0.55;;
55915;SDS011;41826;53.246;-6.670;2022-07-29T15:09:38;0.40;;;0.40;;
55915;SDS011;41826;53.246;-6.670;2022-07-29T15:12:04;4.25;;;0.50;;
55915;SDS011;41826;53.246;-6.670;2022-07-29T15:14:29;1.85;;;1.35;;
55915;SDS011;41826;53.246;-6.670;2022-07-29T15:16:56;2.85;;;0.40;;
55915;SDS011;41826;53.246;-6.670;2022-07-29T15:19:22;0.82;;;0.40;;
55915;SDS011;41826;53.246;-6.670;2022-07-29T15:21:47;0.70;;;0.70;;
55915;SDS011;41826;53.246;-6.670;2022-07-29T15:24:13;3.20;;;0.40;;
55915;SDS011;41826;53.246;-6.670;2022-07-29T15:26:38;2.40;;;0.50;;